Data for 04/17/2018

Time Sea-Level Adjusted Pressure Absolute Pressure Temperature Relative Humidity Dew Point   
(mb) (inHg) (mb) (inHg) (C) (F) (%) (C) (F)
00:05 1009 29.8 839 24.78 0.3 32.6 94 -0.6 30.9
00:10 1009 29.8 839 24.78 0.3 32.6 93 -0.7 30.8
00:15 1010 29.83 839 24.78 0.2 32.3 93 -0.8 30.5
00:20 1010 29.83 839 24.78 0.1 32.2 93 -0.9 30.4
00:25 1010 29.83 839 24.78 0.1 32.2 93 -0.9 30.4
00:30 1009 29.8 839 24.78 0.1 32.3 93 -0.9 30.5
00:35 1010 29.83 839 24.78 0.2 32.3 93 -0.8 30.5
00:40 1010 29.83 839 24.78 0.2 32.4 93 -0.8 30.5
00:45 1010 29.83 839 24.78 0.3 32.5 92 -0.8 30.6
00:50 1010 29.83 839 24.78 0.2 32.4 92 -0.9 30.3
00:55 1010 29.83 839 24.78 -0.1 31.9 92 -1.3 29.7
01:00 1010 29.83 839 24.78 -0.3 31.5 92 -1.4 29.5
01:05 1010 29.83 839 24.78 -0.4 31.3 92 -1.5 29.3
01:10 1010 29.83 839 24.78 -0.5 31.2 92 -1.5 29.2
01:15 1010 29.83 839 24.78 -0.5 31 93 -1.6 29.1
01:20 1010 29.83 839 24.78 -0.5 31 93 -1.6 29.1
01:25 1010 29.83 839 24.78 -0.5 31.1 93 -1.6 29.2
01:30 1010 29.83 839 24.78 -0.6 31 93 -1.6 29.1
01:35 1010 29.83 839 24.78 -0.6 31 92 -1.6 29.1
01:40 1010 29.83 839 24.78 -0.6 30.9 92 -1.8 28.8
01:45 1010 29.83 839 24.78 -0.5 31 92 -1.7 28.9
01:50 1010 29.83 839 24.78 -0.5 31 92 -1.7 28.9
01:55 1010 29.83 839 24.78 -0.6 30.9 91 -1.9 28.5
02:00 1010 29.83 839 24.78 -0.8 30.5 91 -2.1 28.3
02:05 1010 29.83 839 24.78 -0.9 30.3 92 -2.1 28.2
02:10 1010 29.83 839 24.78 -0.9 30.5 92 -2.1 28.3
02:15 1010 29.83 839 24.78 -0.9 30.5 91 -2.1 28.2
02:20 1010 29.83 839 24.78 -0.8 30.5 91 -2.1 28.2
02:25 1010 29.83 839 24.78 -0.9 30.5 91 -2.1 28.2
02:30 1010 29.83 839 24.78 -0.9 30.4 92 -2.1 28.2
02:35 1010 29.83 839 24.78 -0.8 30.6 92 -2 28.5
02:40 1010 29.83 839 24.78 -0.7 30.8 92 -1.8 28.7
02:45 1010 29.83 839 24.78 -0.6 30.9 92 -1.8 28.8
02:50 1010 29.83 839 24.78 -0.6 31 92 -1.8 28.8
02:55 1010 29.83 839 24.78 -0.7 30.7 91 -2 28.4
03:00 1010 29.83 839 24.78 -0.9 30.4 91 -2.2 28
03:05 1010 29.83 839 24.78 -1 30.2 91 -2.3 27.9
03:10 1009 29.8 839 24.78 -1 30.2 90 -2.4 27.7
03:15 1009 29.8 839 24.78 -0.9 30.3 89 -2.5 27.5
03:20 1009 29.8 839 24.78 -0.8 30.5 86 -2.8 27
03:25 1009 29.8 839 24.78 -0.8 30.6 86 -2.9 26.8
03:30 1009 29.8 839 24.78 -0.7 30.7 84 -3.1 26.4
03:35 1009 29.8 839 24.78 -0.6 30.8 83 -3.2 26.2
03:40 1010 29.83 839 24.78 -0.6 30.9 82 -3.3 26.1
03:45 1010 29.83 839 24.78 -0.6 30.9 83 -3.2 26.2
03:50 1010 29.83 839 24.78 -0.7 30.8 82 -3.4 26
03:55 1010 29.83 839 24.78 -0.6 30.9 80 -3.6 25.5
04:00 1010 29.83 839 24.78 -0.6 30.8 81 -3.5 25.7
04:05 1010 29.83 839 24.78 -0.6 30.9 80 -3.7 25.4
04:10 1010 29.83 839 24.78 -0.6 31 77 -4.1 24.6
04:15 1010 29.83 839 24.78 -0.4 31.3 77 -3.9 25
04:20 1010 29.83 839 24.78 -0.4 31.2 78 -3.9 25
04:25 1010 29.83 839 24.78 -0.4 31.3 78 -3.7 25.3
04:30 1010 29.83 839 24.78 -0.4 31.2 79 -3.6 25.5
04:35 1010 29.83 839 24.78 -0.5 31.1 80 -3.6 25.6
04:40 1010 29.83 839 24.78 -0.6 30.9 81 -3.5 25.6
04:45 1010 29.83 839 24.78 -0.7 30.8 81 -3.6 25.6
04:50 1010 29.83 839 24.78 -0.7 30.7 81 -3.5 25.6
04:55 1010 29.83 839 24.78 -0.8 30.6 81 -3.6 25.5
05:00 1010 29.83 839 24.78 -0.8 30.5 81 -3.6 25.4
05:05 1010 29.83 839 24.78 -0.9 30.4 81 -3.7 25.4
05:10 1010 29.83 839 24.78 -0.9 30.4 81 -3.7 25.4
05:15 1010 29.83 839 24.78 -0.9 30.4 81 -3.7 25.3
05:20 1010 29.83 839 24.78 -0.9 30.3 81 -3.8 25.1
05:25 1010 29.83 839 24.78 -1 30.3 80 -4 24.7
05:30 1010 29.83 839 24.78 -1 30.3 80 -4 24.8
05:35 1010 29.83 840 24.81 -1 30.1 80 -4.1 24.6
05:40 1010 29.83 840 24.81 -1.1 30.1 80 -4 24.8
05:45 1011 29.85 840 24.81 -1.1 30.1 79 -4.3 24.3
05:50 1011 29.85 840 24.81 -1 30.1 79 -4.3 24.3
05:55 1011 29.85 840 24.81 -1 30.1 78 -4.3 24.2
06:00 1011 29.85 840 24.81 -1 30.1 77 -4.6 23.7
06:05 1011 29.85 840 24.81 -1 30.2 76 -4.7 23.6
06:10 1011 29.85 840 24.81 -1.1 30.1 77 -4.6 23.7
06:15 1011 29.85 840 24.81 -1 30.2 76 -4.7 23.6
06:20 1011 29.85 840 24.81 -1 30.2 76 -4.7 23.5
06:25 1011 29.85 840 24.81 -1 30.2 76 -4.7 23.5
06:30 1011 29.85 840 24.81 -1.1 30 75 -5 23.1
06:35 1011 29.85 840 24.81 -1.1 30 72 -5.6 21.9
06:40 1011 29.85 840 24.81 -1.1 30.1 72 -5.5 22.2
06:45 1011 29.85 840 24.81 -1.3 29.7 74 -5.3 22.5
06:50 1011 29.85 840 24.81 -1.5 29.3 75 -5.4 22.2
06:55 1011 29.85 840 24.81 -1.6 29.1 74 -5.6 22
07:00 1011 29.85 840 24.81 -1.7 29 75 -5.6 21.9
07:05 1011 29.85 841 24.83 -1.7 28.9 75 -5.6 22
07:10 1012 29.88 841 24.83 -1.7 28.9 74 -5.8 21.6
07:15 1012 29.88 841 24.83 -1.7 28.9 73 -6 21.2
07:20 1012 29.88 841 24.83 -1.7 28.9 73 -6 21.2
07:25 1012 29.88 841 24.83 -1.7 29 71 -6.2 20.9
07:30 1012 29.88 841 24.83 -1.6 29.2 70 -6.3 20.6
07:35 1012 29.88 841 24.83 -1.5 29.4 69 -6.3 20.6
07:40 1012 29.88 841 24.83 -1.4 29.5 70 -6.2 20.9
07:45 1012 29.88 841 24.83 -1.3 29.6 71 -5.9 21.4
07:50 1012 29.88 841 24.83 -1.4 29.6 70 -6.2 20.9
07:55 1012 29.88 841 24.83 -1.4 29.5 69 -6.4 20.5
08:00 1012 29.88 841 24.83 -1.4 29.4 70 -6.2 20.9
08:05 1012 29.88 841 24.83 -1.4 29.4 70 -6.2 20.8
08:10 1012 29.88 841 24.83 -1.4 29.5 69 -6.3 20.6
08:15 1012 29.88 841 24.83 -1.4 29.6 70 -6.1 21.1
08:20 1012 29.88 841 24.83 -1.2 29.8 69 -6.2 20.8
08:25 1012 29.88 841 24.83 -1.1 30.1 67 -6.3 20.6
08:30 1012 29.88 841 24.83 -0.9 30.3 69 -6 21.2
08:35 1012 29.88 841 24.83 -0.8 30.5 68 -6 21.2
08:40 1012 29.88 841 24.83 -1 30.3 69 -5.9 21.3
08:45 1012 29.88 841 24.83 -0.8 30.5 68 -6 21.1
08:50 1012 29.88 842 24.86 -0.7 30.7 68 -5.8 21.5
08:55 1012 29.88 842 24.86 -0.5 31 66 -6.2 20.8
09:00 1012 29.88 842 24.86 -0.8 30.5 68 -6 21.1
09:05 1013 29.91 842 24.86 -1.1 30 67 -6.5 20.3
09:10 1013 29.91 842 24.86 -1.3 29.7 67 -6.5 20.2
09:15 1013 29.91 842 24.86 -1.2 29.8 68 -6.4 20.5
09:20 1013 29.91 842 24.86 -0.9 30.4 66 -6.5 20.3
09:25 1013 29.91 842 24.86 -0.8 30.5 64 -6.7 19.9
09:30 1013 29.91 842 24.86 -0.6 30.9 65 -6.4 20.5
09:35 1013 29.91 842 24.86 -0.1 31.8 61 -6.7 20
09:40 1013 29.91 842 24.86 -0.2 31.6 65 -6.1 21.1
09:45 1013 29.91 842 24.86 0.3 32.5 63 -5.9 21.3
09:50 1013 29.91 842 24.86 0.7 33.2 60 -6.2 20.9
09:55 1013 29.91 842 24.86 1 33.8 60 -6 21.1
10:00 1013 29.91 842 24.86 1.5 34.7 57 -6.1 21.1
10:05 1013 29.91 842 24.86 1.5 34.7 56 -6.3 20.6
10:10 1013 29.91 842 24.86 1.8 35.2 55 -6.4 20.6
10:15 1013 29.91 842 24.86 2.1 35.7 53 -6.6 20.1
10:20 1013 29.91 842 24.86 2 35.6 53 -6.5 20.3
10:25 1013 29.91 842 24.86 2.1 35.8 56 -5.8 21.6
10:30 1013 29.91 842 24.86 2.1 35.7 52 -6.7 20
10:35 1013 29.91 842 24.86 2.2 36 55 -5.8 21.5
10:40 1013 29.91 842 24.86 1.9 35.4 55 -6.2 20.8
10:45 1013 29.91 842 24.86 2 35.5 55 -6 21.1
10:50 1013 29.91 842 24.86 1.9 35.4 52 -6.9 19.6
10:55 1013 29.91 842 24.86 2.4 36.4 54 -6.1 21.1
11:00 1013 29.91 842 24.86 1.9 35.3 57 -5.8 21.5
11:05 1013 29.91 843 24.89 1.6 34.8 54 -6.8 19.7
11:10 1013 29.91 843 24.89 2.7 36.8 54 -5.6 21.9
11:15 1014 29.94 843 24.89 2.8 37 55 -5.4 22.3
11:20 1014 29.94 843 24.89 2.9 37.2 52 -5.9 21.4
11:25 1014 29.94 843 24.89 2.4 36.3 55 -5.8 21.6
11:30 1014 29.94 843 24.89 2 35.6 56 -5.9 21.3
11:35 1014 29.94 843 24.89 1.9 35.4 54 -6.5 20.3
11:40 1014 29.94 843 24.89 1.6 34.8 58 -5.8 21.6
11:45 1014 29.94 843 24.89 2 35.7 56 -5.7 21.7
11:50 1014 29.94 843 24.89 2.1 35.8 57 -5.6 21.8
11:55 1014 29.94 843 24.89 2.1 35.8 55 -6.1 21.1
12:00 1014 29.94 843 24.89 1.9 35.4 53 -6.8 19.8
12:05 1014 29.94 843 24.89 1.8 35.3 54 -6.5 20.2
12:10 1014 29.94 843 24.89 2.1 35.8 53 -6.5 20.2
12:15 1014 29.94 844 24.92 2.2 35.9 53 -6.4 20.5
12:20 1014 29.94 844 24.92 2.2 35.9 55 -6 21.2
12:25 1014 29.94 844 24.92 2.1 35.7 54 -6.4 20.6
12:30 1015 29.97 844 24.92 1.9 35.4 51 -7.2 19.1
12:35 1015 29.97 844 24.92 1.9 35.4 54 -6.5 20.4
12:40 1015 29.97 844 24.92 2.6 36.6 59 -4.6 23.7
12:45 1015 29.97 844 24.92 1.7 35.1 66 -4.1 24.7
12:50 1015 29.97 844 24.92 1.5 34.8 66 -4.2 24.5
12:55 1015 29.97 844 24.92 1.7 35 64 -4.5 24
13:00 1015 29.97 844 24.92 1.5 34.7 61 -5.3 22.5
13:05 1015 29.97 844 24.92 1.2 34.2 60 -5.7 21.7
13:10 1015 29.97 844 24.92 1.6 34.9 60 -5.3 22.5
13:15 1015 29.97 844 24.92 1.9 35.4 61 -4.8 23.3
13:20 1015 29.97 844 24.92 3 37.4 52 -5.9 21.4
13:25 1015 29.97 844 24.92 3.3 37.9 55 -4.9 23.2
13:30 1015 29.97 844 24.92 3.7 38.6 57 -4 24.8
13:35 1015 29.97 844 24.92 3.7 38.6 55 -4.6 23.8
13:40 1015 29.97 844 24.92 3.7 38.6 49 -6.1 21.1
13:45 1015 29.97 844 24.92 3.4 38.1 48 -6.5 20.3
13:50 1015 29.97 844 24.92 3.5 38.3 49 -6.1 20.9
13:55 1015 29.97 844 24.92 4.1 39.3 45 -6.7 19.9
14:00 1015 29.97 844 24.92 4.9 40.8 46 -5.7 21.8
14:05 1015 29.97 844 24.92 3.7 38.7 53 -5.1 22.8
14:10 1015 29.97 845 24.95 3.4 38.1 51 -5.7 21.7
14:15 1015 29.97 845 24.95 4.2 39.5 46 -6.4 20.5
14:20 1015 29.97 845 24.95 4.2 39.6 46 -6.4 20.5
14:25 1015 29.97 845 24.95 4.3 39.7 46 -6.3 20.7
14:30 1016 30 845 24.95 4.9 40.9 45 -5.9 21.4
14:35 1016 30 845 24.95 4.3 39.7 57 -3.5 25.6
14:40 1016 30 845 24.95 3 37.4 58 -4.6 23.8
14:45 1016 30 845 24.95 3.3 37.9 47 -6.8 19.7
14:50 1016 30 845 24.95 3.5 38.3 59 -3.8 25.1
14:55 1016 30 845 24.95 3.2 37.7 57 -4.5 23.9
15:00 1016 30 845 24.95 2.5 36.4 59 -4.8 23.4
15:05 1016 30 845 24.95 2.5 36.5 59 -4.8 23.4
15:10 1016 30 845 24.95 3 37.4 53 -5.6 21.9
15:15 1016 30 845 24.95 2.8 37 57 -5 23
15:20 1016 30 845 24.95 2.7 36.9 58 -4.7 23.5
15:25 1016 30 845 24.95 3.1 37.6 56 -4.8 23.4
15:30 1016 30 845 24.95 4.9 40.9 48 -5.1 22.7
15:35 1016 30 845 24.95 6.3 43.3 42 -5.6 21.9
15:40 1016 30 845 24.95 5.8 42.4 37 -7.8 17.9
15:45 1016 30 845 24.95 5.2 41.4 34 -9.5 14.9
15:50 1016 30 845 24.95 5.4 41.7 38 -7.7 18.1
15:55 1016 30 845 24.95 4.8 40.7 38 -8.4 16.9
16:00 1016 30 846 24.98 3.8 38.9 50 -5.8 21.6
16:05 1017 30.03 846 24.98 3.3 37.9 60 -3.8 25.2
16:10 1017 30.03 846 24.98 2.6 36.7 64 -3.5 25.7
16:15 1017 30.03 846 24.98 2.3 36.1 67 -3.2 26.2
16:20 1017 30.03 846 24.98 2 35.6 71 -2.8 27
16:25 1017 30.03 846 24.98 1.6 34.9 73 -2.8 27
16:30 1017 30.03 846 24.98 0.8 33.5 72 -3.6 25.4
16:35 1017 30.03 846 24.98 1 33.9 70 -3.8 25.2
16:40 1017 30.03 846 24.98 1.7 35 69 -3.3 26
16:45 1017 30.03 846 24.98 1.8 35.2 72 -2.8 27
16:50 1017 30.03 846 24.98 1.4 34.5 78 -2 28.4
16:55 1017 30.03 846 24.98 1.1 34 80 -1.9 28.6
17:00 1017 30.03 846 24.98 1.2 34.1 81 -1.8 28.8
17:05 1017 30.03 847 25.01 0.6 33.1 84 -1.8 28.8
17:10 1017 30.03 847 25.01 1.1 34 80 -2 28.4
17:15 1018 30.06 847 25.01 1.1 34 78 -2.3 27.9
17:20 1018 30.06 847 25.01 1.5 34.7 76 -2.4 27.8
17:25 1018 30.06 847 25.01 2.8 37 70 -2.1 28.3
17:30 1018 30.06 847 25.01 3.4 38.1 65 -2.6 27.3
17:35 1018 30.06 847 25.01 3 37.5 68 -2.3 27.8
17:40 1018 30.06 847 25.01 2.7 36.9 66 -3 26.6
17:45 1018 30.06 847 25.01 3.4 38.1 65 -2.5 27.4
17:50 1018 30.06 847 25.01 3.8 38.8 65 -2.3 27.9
17:55 1018 30.06 847 25.01 3.2 37.7 67 -2.3 27.9
18:00 1018 30.06 847 25.01 2.9 37.2 67 -2.6 27.2
18:05 1018 30.06 847 25.01 2.6 36.6 70 -2.4 27.6
18:10 1018 30.06 847 25.01 2.3 36.1 70 -2.6 27.4
18:15 1018 30.06 847 25.01 2.1 35.7 70 -2.8 27
18:20 1018 30.06 847 25.01 2.1 35.8 69 -2.9 26.7
18:25 1018 30.06 847 25.01 2 35.6 70 -2.9 26.8
18:30 1018 30.06 847 25.01 2 35.6 70 -2.9 26.8
18:35 1018 30.06 847 25.01 2.2 36 70 -2.6 27.2
18:40 1018 30.06 847 25.01 2.5 36.4 68 -2.9 26.8
18:45 1018 30.06 847 25.01 2.5 36.5 68 -2.9 26.8
18:50 1018 30.06 848 25.04 2.6 36.7 69 -2.4 27.6
18:55 1018 30.06 848 25.04 2.2 35.9 71 -2.5 27.4
19:00 1018 30.06 848 25.04 1.9 35.4 72 -2.7 27.2
19:05 1018 30.06 848 25.04 2 35.7 70 -2.9 26.8
19:10 1018 30.06 848 25.04 2.1 35.7 71 -2.7 27.1
19:15 1018 30.06 848 25.04 2.1 35.8 69 -2.9 26.8
19:20 1018 30.06 848 25.04 2.3 36.1 60 -4.6 23.8
19:25 1018 30.06 848 25.04 2.5 36.5 58 -4.8 23.3
19:30 1018 30.06 848 25.04 2.8 37 58 -4.7 23.6
19:35 1018 30.06 848 25.04 2.7 36.9 60 -4.3 24.3
19:40 1018 30.06 848 25.04 2.7 36.9 60 -4.3 24.3
19:45 1018 30.06 848 25.04 2.9 37.1 59 -4.3 24.2
19:50 1019 30.09 848 25.04 2.8 37 59 -4.5 23.9
19:55 1019 30.09 848 25.04 2.7 36.9 61 -4.1 24.6
20:00 1019 30.09 848 25.04 2.8 37 61 -4 24.8
20:05 1019 30.09 848 25.04 2.7 36.9 61 -4.1 24.5
20:10 1019 30.09 848 25.04 2.6 36.7 60 -4.4 24.1
20:15 1019 30.09 848 25.04 2.6 36.6 61 -4.3 24.3
20:20 1019 30.09 848 25.04 2.6 36.7 60 -4.4 24
20:25 1019 30.09 848 25.04 2.6 36.7 60 -4.3 24.2
20:30 1019 30.09 848 25.04 2.6 36.6 59 -4.6 23.8
20:35 1019 30.09 848 25.04 2.6 36.7 58 -4.8 23.4
20:40 1019 30.09 848 25.04 2.6 36.6 60 -4.4 24.1
20:45 1019 30.09 848 25.04 2.1 35.7 66 -3.6 25.6
20:50 1019 30.09 849 25.07 1.6 34.9 66 -4 24.8
20:55 1019 30.09 849 25.07 1.5 34.8 67 -4 24.9
21:00 1019 30.09 849 25.07 1.6 34.9 62 -4.8 23.3
21:05 1019 30.09 849 25.07 2 35.6 60 -4.9 23.2
21:10 1020 30.12 849 25.07 2 35.7 62 -4.6 23.8
21:15 1020 30.12 849 25.07 2 35.6 60 -4.9 23.2
21:20 1020 30.12 849 25.07 2.1 35.7 61 -4.8 23.4
21:25 1020 30.12 849 25.07 2.1 35.9 61 -4.6 23.7
21:30 1020 30.12 849 25.07 2.3 36.1 64 -3.8 25.2
21:35 1020 30.12 850 25.1 2.2 35.9 69 -3 26.6
21:40 1020 30.12 850 25.1 2.1 35.8 66 -3.6 25.5
21:45 1021 30.15 850 25.1 2.1 35.7 67 -3.5 25.7
21:50 1021 30.15 850 25.1 2.1 35.7 66 -3.7 25.4
21:55 1021 30.15 850 25.1 1.9 35.5 67 -3.6 25.6
22:00 1021 30.15 850 25.1 1.8 35.2 69 -3.2 26.2
22:05 1021 30.15 850 25.1 1.3 34.3 72 -3.1 26.4
22:10 1021 30.15 850 25.1 1.1 34 73 -3.1 26.4
22:15 1021 30.15 850 25.1 1.1 34 73 -3.2 26.2
22:20 1021 30.15 850 25.1 1 33.8 73 -3.2 26.2
22:25 1021 30.15 850 25.1 1.1 33.9 75 -2.9 26.7
22:30 1021 30.15 850 25.1 0.9 33.6 73 -3.5 25.7
22:35 1021 30.15 850 25.1 1.1 34 71 -3.5 25.6
22:40 1021 30.15 850 25.1 1.3 34.3 73 -3.1 26.5
22:45 1021 30.15 850 25.1 1 33.8 72 -3.5 25.7
22:50 1021 30.15 850 25.1 1 33.8 73 -3.3 26
22:55 1021 30.15 850 25.1 1 33.7 71 -3.7 25.3
23:00 1021 30.15 850 25.1 1.1 34 73 -3.2 26.2
23:05 1021 30.15 851 25.13 1.1 33.9 74 -3.1 26.4
23:10 1021 30.15 851 25.13 1 33.8 73 -3.4 26
23:15 1021 30.15 850 25.1 1.3 34.3 68 -4.1 24.7
23:20 1021 30.15 851 25.13 1.4 34.6 68 -3.9 24.9
23:25 1021 30.15 851 25.13 1.5 34.7 67 -4 24.9
23:30 1022 30.18 851 25.13 1.6 34.9 65 -4.2 24.5
23:35 1022 30.18 851 25.13 1.7 35 65 -4.1 24.6
23:40 1022 30.18 851 25.13 1.7 35 65 -4.1 24.6
23:45 1022 30.18 851 25.13 1.7 35.1 65 -4.2 24.4
23:50 1022 30.18 851 25.13 1.6 34.9 64 -4.4 24
23:55 1022 30.18 851 25.13 1.5 34.6 65 -4.4 24.2
24:00 1022 30.18 851 25.13 1.3 34.4 67 -4.1 24.6